Time;durP1;ratioP1;P1;durP2;ratioP2;P2;SDS_P1;SDS_P2;PMS_P1;PMS_P2;Temp;Humidity;BMP_temperature;BMP_pressure;BME280_temperature;BME280_humidity;BME280_pressure;Samples;Min_cycle;Max_cycle;Signal;HPM_P1;HPM_P2
2021/12/16 00:07:17;;;;;;;12.60;9.20;;;;;;;7.88;75.87;100636.25;2618575;54;20034;-67
2021/12/16 00:09:55;;;;;;;12.18;8.35;;;;;;;7.93;76.18;100641.13;2618980;54;20035;-68
2021/12/16 00:31:59;;;;;;;13.05;10.20;;;;;;;8.03;75.15;100642.00;2617453;54;20034;-68
2021/12/16 00:34:32;;;;;;;11.85;9.02;;;;;;;8.05;75.22;100631.34;2618058;54;20026;-67
2021/12/16 00:37:02;;;;;;;14.90;10.32;;;;;;;8.05;74.75;100639.25;2618366;47;20023;-67
2021/12/16 00:39:36;;;;;;;12.82;9.30;;;;;;;8.03;74.91;100630.63;2619082;46;20054;-67
2021/12/16 00:42:10;;;;;;;12.60;9.57;;;;;;;8.01;75.15;100637.84;2619035;54;20030;-67
2021/12/16 00:45:06;;;;;;;16.20;9.52;;;;;;;8.02;75.00;100635.06;2619006;54;20039;-68
2021/12/16 00:47:48;;;;;;;11.27;8.40;;;;;;;7.98;75.23;100624.91;2619109;54;20027;-68
2021/12/16 00:54:07;;;;;;;15.13;9.50;;;;;;;7.97;74.88;100634.63;2618266;54;20026;-67
2021/12/16 00:56:00;;;;;;;14.07;9.05;;;;;;;7.76;75.63;100636.47;2618668;54;20061;-67
2021/12/16 00:58:44;;;;;;;12.07;8.27;;;;;;;7.81;75.90;100632.47;2618686;39;20445;-69
2021/12/16 01:01:28;;;;;;;11.90;9.10;;;;;;;7.88;75.81;100633.63;2618037;47;20030;-67
2021/12/16 01:04:21;;;;;;;11.30;8.48;;;;;;;7.91;75.37;100640.41;2618158;50;20034;-67
2021/12/16 01:07:08;;;;;;;11.95;8.27;;;;;;;7.91;75.12;100643.88;2618086;54;20034;-68
2021/12/16 01:34:40;;;;;;;12.68;9.77;;;;;;;7.80;75.33;100653.66;2617955;47;20089;-66
2021/12/16 01:40:15;;;;;;;14.65;10.15;;;;;;;7.80;75.29;100661.56;2617977;54;20041;-67
2021/12/16 01:45:48;;;;;;;14.52;10.32;;;;;;;7.83;75.42;100667.38;2618423;39;20463;-67
2021/12/16 01:51:20;;;;;;;14.77;9.80;;;;;;;7.83;75.02;100663.91;2617594;47;20081;-66
2021/12/16 01:56:53;;;;;;;14.15;10.07;;;;;;;7.86;75.13;100661.03;2617402;54;20057;-66
2021/12/16 01:59:26;;;;;;;12.73;9.55;;;;;;;7.84;74.75;100663.81;2617769;47;20577;-67
2021/12/16 02:02:03;;;;;;;13.13;9.95;;;;;;;7.85;74.72;100660.19;2618042;47;20028;-67
2021/12/16 02:04:41;;;;;;;13.45;9.52;;;;;;;7.90;74.46;100657.16;2618020;47;20122;-67
2021/12/16 02:07:29;;;;;;;12.10;9.52;;;;;;;7.92;74.32;100658.72;2617605;47;20049;-69
2021/12/16 02:10:02;;;;;;;12.98;10.27;;;;;;;7.91;74.59;100664.09;2618226;54;20034;-69
2021/12/16 02:12:50;;;;;;;12.95;9.48;;;;;;;7.91;74.63;100664.09;2617450;47;20030;-68
2021/12/16 02:29:12;;;;;;;12.20;9.15;;;;;;;7.73;74.58;100647.25;2618195;54;20038;-67
2021/12/16 02:31:52;;;;;;;12.73;9.13;;;;;;;7.73;74.95;100661.22;2617898;39;20452;-68
2021/12/16 02:34:32;;;;;;;17.30;11.13;;;;;;;7.67;74.72;100651.19;2617163;47;20062;-68
2021/12/16 02:37:15;;;;;;;13.07;9.85;;;;;;;7.71;75.54;100642.09;2617651;50;20031;-68
2021/12/16 02:39:48;;;;;;;12.70;9.82;;;;;;;7.77;74.98;100649.47;2618291;39;20442;-68
2021/12/16 02:42:24;;;;;;;12.35;9.60;;;;;;;7.77;74.93;100640.75;2618719;54;20033;-68
2021/12/16 02:50:25;;;;;;;14.20;9.93;;;;;;;7.79;74.99;100644.06;2619205;54;20030;-68
2021/12/16 02:52:57;;;;;;;13.63;10.05;;;;;;;7.79;74.67;100642.28;2619404;54;20065;-69
2021/12/16 02:55:27;;;;;;;12.70;9.10;;;;;;;7.76;74.85;100639.91;2621449;54;20041;-69
2021/12/16 02:58:00;;;;;;;13.85;9.43;;;;;;;7.78;74.99;100629.25;2620599;54;20046;-68
2021/12/16 03:00:35;;;;;;;15.03;10.03;;;;;;;7.77;74.59;100638.94;2619049;47;20031;-69
2021/12/16 03:03:06;;;;;;;14.77;10.65;;;;;;;7.78;74.57;100643.25;2619267;54;20278;-67
2021/12/16 03:05:36;;;;;;;14.90;10.18;;;;;;;7.78;75.17;100637.97;2619936;54;20645;-68
2021/12/16 03:08:08;;;;;;;12.57;9.63;;;;;;;7.79;74.91;100641.44;2618960;47;20557;-66
2021/12/16 03:13:28;;;;;;;14.75;9.60;;;;;;;7.70;75.25;100645.69;2617453;54;20033;-67
2021/12/16 03:16:09;;;;;;;18.45;9.88;;;;;;;7.64;75.52;100651.47;2619271;39;20418;-66
2021/12/16 03:18:47;;;;;;;14.10;9.60;;;;;;;7.57;75.75;100655.59;2619817;54;20030;-66
2021/12/16 03:21:28;;;;;;;11.93;9.40;;;;;;;7.61;76.16;100652.56;2619742;47;20030;-66
2021/12/16 03:24:21;;;;;;;12.23;9.25;;;;;;;7.64;75.74;100654.94;2619913;46;20054;-66
2021/12/16 03:27:24;;;;;;;14.07;9.93;;;;;;;7.68;75.87;100660.78;2621103;54;20549;-68
2021/12/16 03:30:18;;;;;;;11.88;9.75;;;;;;;7.70;75.95;100667.56;2620764;54;20086;-68
2021/12/16 03:33:29;;;;;;;12.40;9.02;;;;;;;7.65;75.86;100659.25;2619938;54;20046;-68
2021/12/16 03:36:08;;;;;;;15.23;10.65;;;;;;;7.62;75.75;100656.84;2621160;54;20046;-65
2021/12/16 03:38:45;;;;;;;12.82;10.10;;;;;;;7.61;76.16;100659.63;2619282;39;20446;-67
2021/12/16 03:41:17;;;;;;;16.45;10.25;;;;;;;7.62;75.93;100658.66;2620068;47;20545;-67
2021/12/16 03:43:49;;;;;;;12.38;9.73;;;;;;;7.60;75.59;100658.78;2619821;54;20030;-66
2021/12/16 03:46:28;;;;;;;14.63;10.65;;;;;;;7.59;75.77;100665.03;2618961;54;20162;-67
2021/12/16 03:49:04;;;;;;;15.23;10.65;;;;;;;7.59;75.83;100658.91;2618377;47;20032;-67
2021/12/16 03:51:39;;;;;;;13.52;9.60;;;;;;;7.61;75.83;100667.53;2618455;54;20027;-67
2021/12/16 03:54:16;;;;;;;15.52;9.95;;;;;;;7.62;75.74;100662.13;2618527;39;20425;-67
2021/12/16 03:56:53;;;;;;;13.77;9.00;;;;;;;7.63;76.24;100655.91;2618379;54;20061;-68
2021/12/16 03:59:26;;;;;;;12.68;9.88;;;;;;;7.56;76.13;100670.53;2618143;47;20034;-67
2021/12/16 04:02:05;;;;;;;12.93;10.07;;;;;;;7.55;75.89;100673.28;2617740;47;20057;-68
2021/12/16 04:04:45;;;;;;;14.77;11.52;;;;;;;7.59;76.21;100662.41;2618533;54;20027;-69
2021/12/16 04:07:16;;;;;;;15.10;10.27;;;;;;;7.61;76.23;100665.72;2618484;54;20030;-68
2021/12/16 04:10:10;;;;;;;14.27;10.30;;;;;;;7.59;76.56;100670.28;2618236;47;20023;-68
2021/12/16 04:12:42;;;;;;;13.93;11.02;;;;;;;7.59;76.58;100670.28;2617801;54;20034;-68
2021/12/16 04:15:13;;;;;;;14.93;10.05;;;;;;;7.63;76.08;100671.72;2618841;54;20019;-68
2021/12/16 04:17:50;;;;;;;14.35;10.48;;;;;;;7.68;76.15;100673.94;2617793;47;20065;-68
2021/12/16 04:20:20;;;;;;;15.25;10.23;;;;;;;7.70;75.93;100664.94;2618988;39;20411;-68
2021/12/16 04:22:51;;;;;;;13.63;10.35;;;;;;;7.68;75.92;100668.69;2617640;54;20035;-68
2021/12/16 04:25:24;;;;;;;15.82;10.98;;;;;;;7.62;75.86;100672.66;2617918;54;20034;-68
2021/12/16 04:28:00;;;;;;;15.57;11.93;;;;;;;7.61;76.34;100670.16;2618639;54;20089;-68
2021/12/16 04:30:33;;;;;;;16.88;10.80;;;;;;;7.56;76.24;100686.34;2618140;47;20026;-68
2021/12/16 04:33:06;;;;;;;17.08;11.55;;;;;;;7.58;76.58;100680.94;2617832;51;20026;-68
2021/12/16 04:35:38;;;;;;;14.85;11.05;;;;;;;7.60;76.47;100674.59;2618750;54;20129;-68
2021/12/16 04:38:11;;;;;;;16.77;11.43;;;;;;;7.65;76.52;100679.47;2618209;51;20027;-68
2021/12/16 04:40:44;;;;;;;16.80;11.77;;;;;;;7.64;76.56;100680.44;2618486;54;20053;-68
2021/12/16 04:43:20;;;;;;;16.92;11.35;;;;;;;7.67;76.55;100672.25;2617957;54;20030;-68
2021/12/16 04:46:05;;;;;;;16.83;12.65;;;;;;;7.66;76.06;100678.50;2618264;54;20542;-67
2021/12/16 04:48:36;;;;;;;17.45;12.23;;;;;;;7.65;76.27;100680.28;2618098;47;20022;-67
2021/12/16 04:51:10;;;;;;;16.98;11.45;;;;;;;7.65;76.71;100680.28;2618307;54;20027;-68
2021/12/16 04:53:42;;;;;;;16.20;12.07;;;;;;;7.72;76.44;100691.16;2618275;47;20026;-68
2021/12/16 04:56:15;;;;;;;15.63;11.45;;;;;;;7.75;76.45;100687.41;2618292;39;20425;-67
2021/12/16 04:59:02;;;;;;;15.70;11.35;;;;;;;7.65;76.25;100690.81;2618043;51;20065;-67
2021/12/16 05:01:32;;;;;;;17.23;11.32;;;;;;;7.69;76.70;100697.50;2617808;47;20019;-67
2021/12/16 05:04:01;;;;;;;16.15;11.55;;;;;;;7.75;76.75;100697.94;2617876;47;20035;-68
2021/12/16 05:06:32;;;;;;;15.20;10.15;;;;;;;7.76;76.12;100695.22;2618037;54;20062;-68
2021/12/16 05:09:03;;;;;;;16.35;11.55;;;;;;;7.79;76.35;100707.25;2618474;39;20451;-68
2021/12/16 05:11:43;;;;;;;18.48;11.73;;;;;;;7.76;76.11;100699.63;2617310;47;20066;-67
2021/12/16 05:14:20;;;;;;;15.32;10.55;;;;;;;7.79;76.31;100708.09;2618260;47;20035;-67
2021/12/16 05:16:49;;;;;;;17.67;11.90;;;;;;;7.78;76.33;100700.34;2619356;46;20030;-71
2021/12/16 05:19:20;;;;;;;15.90;11.80;;;;;;;7.76;76.11;100704.91;2623013;54;20030;-70
2021/12/16 05:21:56;;;;;;;17.27;12.57;;;;;;;7.61;76.00;100694.69;2623059;47;20039;-70
2021/12/16 05:24:26;;;;;;;16.23;11.70;;;;;;;7.68;76.45;100701.09;2623176;54;20029;-70
2021/12/16 05:27:09;;;;;;;19.23;11.95;;;;;;;7.69;76.20;100694.88;2623327;54;20029;-70
2021/12/16 05:29:42;;;;;;;16.50;11.63;;;;;;;7.73;76.33;100699.88;2622724;54;20030;-71
2021/12/16 05:32:13;;;;;;;;;;;;;;;7.70;76.54;100707.06;2622704;47;20034;-70
2021/12/16 05:34:43;;;;;;;16.60;11.82;;;;;;;7.67;76.37;100711.75;2623298;47;19939;-71
2021/12/16 05:37:14;;;;;;;15.93;11.38;;;;;;;7.68;76.67;100714.28;2622700;47;20043;-71
2021/12/16 05:39:45;;;;;;;16.15;11.60;;;;;;;7.72;76.38;100711.38;2622738;54;20033;-70
2021/12/16 05:42:33;;;;;;;17.67;12.63;;;;;;;7.74;76.59;100718.19;2622418;51;20034;-71
2021/12/16 05:45:07;;;;;;;18.35;12.48;;;;;;;7.77;76.01;100730.25;2623182;54;20030;-69
2021/12/16 05:47:37;;;;;;;21.20;13.30;;;;;;;7.69;76.34;100715.09;2623089;54;20027;-69
2021/12/16 05:50:10;;;;;;;19.48;14.02;;;;;;;7.69;76.38;100726.47;2623654;54;20038;-71
2021/12/16 05:52:40;;;;;;;19.15;13.88;;;;;;;7.67;76.32;100723.13;2622875;47;20037;-70
2021/12/16 05:55:11;;;;;;;19.08;13.10;;;;;;;7.72;76.42;100729.81;2622615;54;20018;-70
2021/12/16 05:58:07;;;;;;;19.40;13.07;;;;;;;7.67;76.57;100733.66;2621959;54;20049;-70
2021/12/16 06:00:42;;;;;;;17.45;12.93;;;;;;;7.64;76.56;100736.53;2622942;47;20034;-70
2021/12/16 06:03:14;;;;;;;16.80;12.10;;;;;;;7.58;76.39;100747.56;2622740;54;20081;-69
2021/12/16 06:05:44;;;;;;;19.13;13.93;;;;;;;7.54;76.87;100746.13;2621692;54;20138;-68
2021/12/16 06:08:14;;;;;;;18.70;13.30;;;;;;;7.59;76.96;100738.72;2622796;54;20029;-70
2021/12/16 06:13:33;;;;;;;18.27;13.57;;;;;;;7.68;76.81;100735.31;2623416;54;20027;-68
2021/12/16 06:27:03;;;;;;;17.77;12.93;;;;;;;7.56;76.82;100732.88;2622918;54;20046;-69
2021/12/16 06:29:33;;;;;;;19.95;13.70;;;;;;;7.53;76.83;100741.84;2622440;54;20030;-69
2021/12/16 06:32:06;;;;;;;18.20;12.80;;;;;;;7.53;76.49;100736.59;2622097;54;20019;-68
2021/12/16 06:34:36;;;;;;;22.13;13.45;;;;;;;7.58;77.11;100736.19;2622739;39;20444;-69
2021/12/16 06:37:07;;;;;;;19.83;13.18;;;;;;;7.58;76.56;100741.47;2624643;54;20026;-69
2021/12/16 06:39:38;;;;;;;20.52;14.70;;;;;;;7.54;76.55;100743.50;2624784;54;20061;-70
2021/12/16 06:42:30;;;;;;;18.48;13.20;;;;;;;7.39;76.67;100742.97;2624484;54;20632;-69
2021/12/16 06:45:07;;;;;;;19.17;13.48;;;;;;;7.45;77.73;100737.22;2624139;47;20033;-69
2021/12/16 06:47:44;;;;;;;18.77;13.50;;;;;;;7.54;77.56;100738.25;2624638;54;20034;-70
2021/12/16 06:50:26;;;;;;;20.63;14.07;;;;;;;7.61;76.94;100738.59;2624864;54;20568;-69
2021/12/16 06:52:58;;;;;;;17.58;12.23;;;;;;;7.60;76.90;100745.66;2624710;54;20027;-69
2021/12/16 06:55:36;;;;;;;18.60;13.45;;;;;;;7.63;77.18;100747.19;2624849;54;20033;-69
2021/12/16 06:58:17;;;;;;;19.80;14.02;;;;;;;7.66;76.85;100744.31;2624683;54;20042;-69
2021/12/16 07:00:49;;;;;;;23.10;14.57;;;;;;;7.65;76.63;100746.09;2623527;54;20050;-69
2021/12/16 07:03:28;;;;;;;21.85;15.35;;;;;;;7.58;76.60;100744.09;2623398;54;20082;-70
2021/12/16 07:05:58;;;;;;;21.75;14.15;;;;;;;7.61;76.99;100751.75;2623501;54;20114;-70
2021/12/16 07:08:28;;;;;;;18.15;13.43;;;;;;;7.60;76.53;100750.91;2623620;54;20038;-69
2021/12/16 07:10:59;;;;;;;21.02;14.65;;;;;;;7.50;76.41;100754.41;2623336;54;20910;-70
2021/12/16 07:13:37;;;;;;;18.73;13.05;;;;;;;7.35;76.80;100748.63;2622988;54;20034;-70
2021/12/16 07:16:15;;;;;;;18.83;13.23;;;;;;;7.37;77.43;100749.31;2623892;54;20022;-70
2021/12/16 07:18:47;;;;;;;24.38;15.32;;;;;;;7.45;76.96;100758.25;2623570;54;20038;-69
2021/12/16 07:21:17;;;;;;;22.88;14.10;;;;;;;7.47;77.03;100767.81;2623424;54;20043;-68
2021/12/16 07:23:47;;;;;;;23.02;13.00;;;;;;;7.44;77.08;100764.50;2623929;39;20453;-70
2021/12/16 07:26:17;;;;;;;23.23;14.27;;;;;;;7.52;76.98;100766.50;2624639;54;20026;-70
2021/12/16 07:28:47;;;;;;;19.08;13.50;;;;;;;7.63;76.85;100766.47;2624133;54;20034;-69
2021/12/16 07:31:16;;;;;;;20.20;14.52;;;;;;;7.68;76.98;100774.00;2624953;54;20038;-69
2021/12/16 07:33:48;;;;;;;18.27;12.80;;;;;;;7.68;76.83;100780.09;2625499;39;20442;-71
2021/12/16 07:36:19;;;;;;;21.80;14.27;;;;;;;7.70;76.42;100787.84;2624378;54;20038;-70
2021/12/16 07:38:49;;;;;;;20.30;13.90;;;;;;;7.71;76.91;100792.13;2623588;54;20041;-71
2021/12/16 07:41:21;;;;;;;21.63;15.70;;;;;;;7.72;76.34;100793.84;2623399;54;20033;-69
2021/12/16 07:44:09;;;;;;;19.40;13.23;;;;;;;7.51;76.30;100806.09;2624299;54;20034;-69
2021/12/16 07:46:39;;;;;;;18.83;14.13;;;;;;;7.43;76.77;100804.94;2624113;54;20034;-69
2021/12/16 07:49:15;;;;;;;17.83;13.40;;;;;;;7.45;76.92;100808.25;2624638;54;20023;-70
2021/12/16 07:51:45;;;;;;;16.77;12.73;;;;;;;7.42;76.75;100816.38;2623486;54;20689;-70
2021/12/16 07:54:17;;;;;;;18.42;13.45;;;;;;;7.55;77.19;100821.53;2623732;54;20042;-71
2021/12/16 07:56:47;;;;;;;18.33;13.23;;;;;;;7.61;76.60;100815.75;2623628;54;20684;-71
2021/12/16 07:59:17;;;;;;;19.38;14.55;;;;;;;7.70;76.54;100827.34;2624403;54;20038;-70
2021/12/16 08:01:48;;;;;;;18.27;12.52;;;;;;;7.74;76.38;100833.19;2623274;54;20558;-70
2021/12/16 08:04:27;;;;;;;20.02;14.30;;;;;;;7.64;75.97;100833.09;2623672;54;20106;-70
2021/12/16 08:07:03;;;;;;;21.25;14.25;;;;;;;7.57;75.90;100824.84;2623360;47;20554;-70
2021/12/16 08:09:35;;;;;;;18.20;13.82;;;;;;;7.47;76.78;100836.25;2624138;54;20041;-70
2021/12/16 08:12:05;;;;;;;24.77;15.52;;;;;;;7.57;76.99;100842.44;2624168;54;20026;-70
2021/12/16 08:14:34;;;;;;;24.02;16.17;;;;;;;7.56;76.40;100844.25;2624763;54;20077;-69
2021/12/16 08:17:04;;;;;;;21.20;14.75;;;;;;;7.55;76.68;100849.63;2623953;54;20061;-70
2021/12/16 08:19:38;;;;;;;19.33;13.43;;;;;;;7.57;76.62;100859.06;2624426;46;20050;-69
2021/12/16 08:22:08;;;;;;;19.52;13.80;;;;;;;7.72;77.22;100848.28;2624296;54;20045;-70
2021/12/16 08:24:38;;;;;;;21.27;15.80;;;;;;;7.78;76.12;100853.88;2625375;39;20445;-70
2021/12/16 08:27:10;;;;;;;23.10;14.57;;;;;;;7.71;76.22;100847.44;2624219;54;20541;-70
2021/12/16 08:29:40;;;;;;;22.50;15.30;;;;;;;7.73;76.29;100853.41;2623977;54;20034;-69
2021/12/16 08:32:10;;;;;;;21.35;14.63;;;;;;;7.81;76.42;100851.00;2623109;54;20542;-71
2021/12/16 08:34:45;;;;;;;21.70;15.75;;;;;;;7.90;76.30;100855.50;2623559;54;20038;-70
2021/12/16 08:37:16;;;;;;;20.90;13.25;;;;;;;7.93;76.17;100855.25;2623733;54;20030;-70
2021/12/16 08:39:46;;;;;;;16.75;12.48;;;;;;;7.90;75.76;100858.13;2623593;46;20034;-70
2021/12/16 08:42:16;;;;;;;16.08;12.18;;;;;;;7.97;76.01;100860.28;2624262;39;20442;-69
2021/12/16 08:44:46;;;;;;;16.75;11.52;;;;;;;7.89;75.51;100860.91;2624111;39;20445;-70
2021/12/16 08:47:18;;;;;;;17.77;11.68;;;;;;;7.86;75.97;100859.34;2623292;54;20010;-70
2021/12/16 08:49:51;;;;;;;17.88;12.77;;;;;;;7.90;75.50;100847.59;2623358;54;20031;-70
2021/12/16 08:52:24;;;;;;;21.80;13.57;;;;;;;7.95;75.65;100857.75;2622838;54;20041;-71
2021/12/16 08:54:54;;;;;;;17.40;13.00;;;;;;;8.01;75.24;100857.28;2624008;54;20030;-70
2021/12/16 08:57:27;;;;;;;15.38;11.63;;;;;;;7.99;75.21;100868.88;2624358;54;20565;-69
2021/12/16 08:59:57;;;;;;;14.75;11.07;;;;;;;8.03;75.78;100860.59;2623943;39;20444;-70
2021/12/16 09:02:27;;;;;;;19.63;13.77;;;;;;;8.17;75.13;100868.22;2622597;54;20568;-71
2021/12/16 09:04:59;;;;;;;18.73;13.55;;;;;;;8.14;74.65;100875.53;2623496;54;20043;-70
2021/12/16 09:07:29;;;;;;;23.80;14.90;;;;;;;8.12;74.74;100874.81;2624010;54;20065;-70
2021/12/16 09:09:59;;;;;;;22.08;15.27;;;;;;;8.22;74.84;100875.75;2623893;54;20045;-71
2021/12/16 09:12:53;;;;;;;20.85;13.95;;;;;;;8.19;74.99;100879.47;2623763;54;20565;-69
2021/12/16 09:15:26;;;;;;;15.20;11.30;;;;;;;8.26;74.99;100881.59;2623876;54;20030;-69
2021/12/16 09:17:56;;;;;;;16.35;12.07;;;;;;;8.32;74.34;100878.44;2623505;54;20546;-70
2021/12/16 09:20:28;;;;;;;19.52;13.48;;;;;;;8.32;74.84;100888.97;2623000;39;20425;-69
2021/12/16 09:23:00;;;;;;;20.25;14.40;;;;;;;8.42;74.89;100882.88;2622823;54;20553;-70
2021/12/16 09:25:30;;;;;;;19.92;14.13;;;;;;;8.47;74.32;100890.38;2622651;54;20042;-71
2021/12/16 09:28:00;;;;;;;18.95;13.25;;;;;;;8.51;74.58;100889.16;2622291;54;20027;-70
2021/12/16 09:30:31;;;;;;;19.98;13.73;;;;;;;8.61;74.02;100889.22;2623290;54;20042;-69
2021/12/16 09:33:02;;;;;;;22.10;14.13;;;;;;;8.65;74.26;100894.13;2622433;54;20037;-69
2021/12/16 09:35:40;;;;;;;17.40;12.50;;;;;;;8.59;73.84;100891.16;2622261;54;20585;-69
2021/12/16 09:38:12;;;;;;;23.58;12.85;;;;;;;8.47;73.26;100900.94;2622573;54;20510;-69
2021/12/16 09:40:48;;;;;;;17.90;12.32;;;;;;;8.35;73.49;100901.91;2622330;54;20038;-69
2021/12/16 09:43:18;;;;;;;16.38;12.23;;;;;;;8.26;73.71;100900.88;2622218;54;20098;-69
2021/12/16 09:45:54;;;;;;;18.15;12.18;;;;;;;8.40;74.59;100905.03;2621635;54;20042;-70
2021/12/16 09:48:24;;;;;;;18.95;13.32;;;;;;;8.54;73.66;100903.91;2622072;54;20046;-68
2021/12/16 09:50:56;;;;;;;18.75;11.98;;;;;;;8.50;73.51;100900.69;2622375;54;20548;-69
2021/12/16 09:53:26;;;;;;;17.83;12.07;;;;;;;8.59;73.96;100893.78;2623313;39;20703;-68
2021/12/16 09:56:00;;;;;;;19.65;13.98;;;;;;;8.79;73.53;100898.22;2622171;54;20546;-69
2021/12/16 09:58:37;;;;;;;18.45;12.82;;;;;;;8.80;73.21;100894.63;2622061;54;20030;-69
2021/12/16 10:01:09;;;;;;;20.90;12.50;;;;;;;8.81;72.66;100901.56;2619757;54;20069;-69
2021/12/16 10:03:41;;;;;;;17.58;12.93;;;;;;;8.75;72.80;100907.38;2619652;54;20046;-69
2021/12/16 10:06:15;;;;;;;17.83;13.40;;;;;;;8.70;72.81;100903.44;2618425;54;20034;-69
2021/12/16 10:08:46;;;;;;;18.23;12.38;;;;;;;8.83;72.73;100902.28;2619934;54;20034;-68
2021/12/16 10:11:16;;;;;;;17.45;13.73;;;;;;;9.04;72.45;100902.25;2619081;47;20030;-69
2021/12/16 10:14:00;;;;;;;16.73;12.57;;;;;;;9.14;72.13;100905.78;2620035;54;20034;-69
2021/12/16 10:19:15;;;;;;;15.43;12.50;;;;;;;9.16;71.64;100906.47;2620318;54;20029;-68
2021/12/16 10:21:48;;;;;;;21.88;14.10;;;;;;;9.15;71.40;100918.00;2621703;54;20018;-67
2021/12/16 10:24:26;;;;;;;17.17;12.27;;;;;;;9.14;71.65;100918.97;2622459;54;20053;-68
2021/12/16 10:27:07;;;;;;;18.80;12.27;;;;;;;9.21;71.50;100915.78;2623559;54;20045;-68
2021/12/16 10:29:39;;;;;;;18.35;13.63;;;;;;;9.37;71.81;100897.66;2622917;54;20038;-68
2021/12/16 11:18:22;;;;;;;17.00;13.32;;;;;;;9.90;69.57;100892.91;2617833;47;20038;-69
2021/12/16 11:20:56;;;;;;;18.77;13.95;;;;;;;9.92;69.30;100898.91;2618705;47;20053;-69
2021/12/16 11:23:27;;;;;;;;;;;;;;;9.96;69.03;100891.56;2619346;54;20050;-69
2021/12/16 11:25:59;;;;;;;17.27;13.50;;;;;;;10.05;69.22;100890.72;2618949;39;20310;-68
2021/12/16 11:28:35;;;;;;;17.42;14.23;;;;;;;10.08;68.65;100892.22;2619931;39;20421;-68
2021/12/16 11:31:07;;;;;;;21.17;15.32;;;;;;;10.03;68.01;100882.06;2619409;54;20549;-68
2021/12/16 11:33:44;;;;;;;20.52;14.15;;;;;;;9.99;68.82;100883.31;2619248;54;20047;-69
2021/12/16 11:36:16;;;;;;;19.20;14.18;;;;;;;10.05;68.44;100880.16;2618796;54;20042;-67
2021/12/16 11:38:49;;;;;;;17.40;13.98;;;;;;;10.08;68.23;100882.53;2619440;54;20070;-67
2021/12/16 11:41:30;;;;;;;;;;;;;;;10.04;67.72;100882.91;2619458;39;20474;-67
2021/12/16 11:44:08;;;;;;;16.05;12.85;;;;;;;10.07;67.70;100882.63;2618996;47;20440;-67
2021/12/16 11:46:41;;;;;;;16.38;12.65;;;;;;;10.10;67.67;100874.44;2619016;54;20037;-67
2021/12/16 11:49:25;;;;;;;20.17;12.48;;;;;;;10.04;67.13;100880.28;2620203;54;20031;-67
2021/12/16 11:52:00;;;;;;;17.27;12.70;;;;;;;10.05;67.27;100879.31;2620214;54;20030;-67
2021/12/16 11:54:35;;;;;;;16.73;12.20;;;;;;;10.09;66.71;100884.19;2619595;46;20019;-67
2021/12/16 11:57:12;;;;;;;18.25;12.23;;;;;;;10.22;66.68;100888.34;2620200;54;20038;-67
2021/12/16 11:59:45;;;;;;;15.82;12.02;;;;;;;10.32;66.92;100883.91;2620438;54;20026;-66
2021/12/16 12:02:26;;;;;;;14.43;9.45;;;;;;;10.36;65.82;100885.31;2619169;54;20034;-67
2021/12/16 12:05:19;;;;;;;17.15;9.90;;;;;;;10.40;65.79;100884.88;2619077;54;20580;-67
2021/12/16 12:07:54;;;;;;;16.45;11.35;;;;;;;10.47;65.29;100884.34;2618784;54;20030;-67
2021/12/16 12:10:40;;;;;;;12.10;9.20;;;;;;;10.48;64.91;100875.41;2619876;39;20416;-67
2021/12/16 12:13:12;;;;;;;13.98;8.52;;;;;;;10.55;65.15;100879.19;2621418;54;20037;-67
2021/12/16 12:15:59;;;;;;;11.85;9.80;;;;;;;10.68;64.54;100876.22;2621831;54;20030;-67
2021/12/16 12:18:38;;;;;;;15.55;10.82;;;;;;;10.70;63.92;100871.63;2621212;54;20027;-68
2021/12/16 12:21:33;;;;;;;13.93;10.88;;;;;;;10.66;63.82;100868.44;2619339;54;20030;-68
2021/12/16 12:24:14;;;;;;;13.70;8.65;;;;;;;10.53;64.13;100874.03;2619286;54;20030;-67
2021/12/16 12:26:48;;;;;;;12.50;8.15;;;;;;;10.47;63.73;100869.31;2619166;54;20034;-67
2021/12/16 12:29:28;;;;;;;11.25;8.70;;;;;;;10.46;64.00;100862.34;2618958;54;20042;-68
2021/12/16 12:32:02;;;;;;;8.95;7.78;;;;;;;10.43;63.04;100862.63;2618536;54;20045;-68
2021/12/16 12:34:33;;;;;;;15.40;8.63;;;;;;;10.41;63.53;100861.94;2618632;47;20061;-67
2021/12/16 12:37:11;;;;;;;12.43;7.53;;;;;;;10.52;62.36;100869.69;2618102;54;20019;-65
2021/12/16 12:39:46;;;;;;;8.13;5.32;;;;;;;10.48;60.71;100867.47;2618169;46;20037;-67
2021/12/16 12:42:18;;;;;;;9.43;5.00;;;;;;;10.49;59.53;100856.78;2619219;39;20450;-66
2021/12/16 12:44:48;;;;;;;6.32;4.80;;;;;;;10.49;59.98;100862.06;2619009;54;20038;-66
2021/12/16 12:47:21;;;;;;;8.27;5.50;;;;;;;10.58;59.91;100861.22;2619215;54;20026;-66
2021/12/16 12:49:51;;;;;;;10.15;4.85;;;;;;;10.71;58.16;100860.06;2617952;48;20030;-66
2021/12/16 12:52:28;;;;;;;6.70;4.57;;;;;;;10.77;57.98;100864.78;2618824;54;20030;-66
2021/12/16 12:55:02;;;;;;;6.03;4.10;;;;;;;10.84;57.54;100858.78;2619234;39;20434;-67
2021/12/16 12:57:36;;;;;;;7.18;4.50;;;;;;;10.94;57.06;100861.41;2618871;54;20161;-67
2021/12/16 13:00:09;;;;;;;9.63;4.57;;;;;;;10.96;56.70;100853.31;2618509;54;20027;-67
2021/12/16 13:02:41;;;;;;;4.13;3.50;;;;;;;10.96;56.56;100856.78;2618311;54;20034;-66
2021/12/16 13:05:14;;;;;;;5.85;4.15;;;;;;;11.01;56.46;100854.53;2618430;54;20065;-66
2021/12/16 13:07:54;;;;;;;7.90;4.28;;;;;;;11.04;56.42;100850.78;2618614;54;20026;-67
2021/12/16 13:10:30;;;;;;;4.50;3.63;;;;;;;11.09;55.88;100859.94;2618648;54;20026;-67
2021/12/16 13:13:28;;;;;;;6.55;4.47;;;;;;;11.12;56.00;100861.47;2617720;47;20049;-63
2021/12/16 13:16:17;;;;;;;6.18;4.25;;;;;;;11.20;55.47;100860.75;2618169;54;20086;-63
2021/12/16 13:24:46;;;;;;;6.93;4.72;;;;;;;11.15;55.42;100854.06;2618474;54;20034;-62
2021/12/16 13:27:34;;;;;;;5.75;4.05;;;;;;;11.14;55.27;100847.13;2618218;54;20074;-62
2021/12/16 13:30:20;;;;;;;6.78;4.55;;;;;;;11.20;54.93;100850.16;2618152;54;20038;-62
2021/12/16 13:33:16;;;;;;;6.45;4.93;;;;;;;11.20;54.92;100852.78;2617766;54;20557;-62
2021/12/16 13:35:52;;;;;;;5.90;4.00;;;;;;;11.03;55.39;100847.28;2618134;54;20038;-63
2021/12/16 13:38:24;;;;;;;6.82;4.35;;;;;;;11.11;54.47;100852.69;2617647;54;20068;-62
2021/12/16 13:41:10;;;;;;;6.28;4.10;;;;;;;11.13;54.97;100844.59;2618356;54;20034;-61
2021/12/16 13:43:40;;;;;;;6.38;4.30;;;;;;;11.15;55.15;100837.34;2619011;54;20038;-62
2021/12/16 13:46:30;;;;;;;4.70;3.95;;;;;;;11.15;54.74;100837.34;2619237;54;20030;-63
2021/12/16 14:03:13;;;;;;;5.95;4.50;;;;;;;11.20;54.38;100836.91;2618014;54;20158;-65
2021/12/16 14:05:55;;;;;;;7.57;4.40;;;;;;;11.11;54.30;100846.56;2618415;54;20065;-63
2021/12/16 14:08:39;;;;;;;9.23;5.03;;;;;;;11.02;55.35;100844.78;2617833;46;20163;-64
2021/12/16 14:17:09;;;;;;;8.75;4.80;;;;;;;10.88;55.75;100849.56;2617614;47;20046;-63
2021/12/16 14:25:22;;;;;;;8.82;5.30;;;;;;;10.73;56.43;100858.94;2618751;54;20042;-64
2021/12/16 14:41:49;;;;;;;8.98;5.55;;;;;;;10.54;57.16;100865.13;2618001;54;20035;-63
2021/12/16 14:47:29;;;;;;;7.43;5.00;;;;;;;10.56;57.57;100857.03;2618063;54;20035;-63
2021/12/16 14:49:59;;;;;;;8.63;5.00;;;;;;;10.49;57.91;100870.00;2617830;47;20073;-63
2021/12/16 14:52:32;;;;;;;9.48;5.55;;;;;;;10.49;58.12;100863.84;2618155;54;20034;-63
2021/12/16 14:55:03;;;;;;;7.32;5.55;;;;;;;10.36;58.11;100862.34;2618922;39;20408;-62
2021/12/16 14:57:36;;;;;;;12.80;6.20;;;;;;;10.40;58.42;100866.38;2618552;54;20034;-63
2021/12/16 15:00:18;;;;;;;10.90;6.45;;;;;;;10.26;58.34;100868.63;2618543;39;20454;-61
2021/12/16 15:03:00;;;;;;;9.73;5.80;;;;;;;10.23;58.67;100868.88;2617985;54;20155;-63
2021/12/16 15:05:34;;;;;;;11.05;5.90;;;;;;;10.23;58.72;100876.81;2618438;54;20034;-65
2021/12/16 15:08:12;;;;;;;10.55;6.30;;;;;;;10.24;58.83;100870.53;2618708;39;20453;-63
2021/12/16 15:10:45;;;;;;;11.02;6.25;;;;;;;10.29;58.51;100871.00;2617633;54;20031;-64
2021/12/16 15:13:21;;;;;;;10.82;6.03;;;;;;;10.24;58.88;100867.91;2617869;54;20105;-63
2021/12/16 15:16:09;;;;;;;11.38;6.00;;;;;;;10.13;58.50;100882.09;2617461;54;20118;-63